createdAt,value
2023-04-02T00:00:34.259Z,101411.94
2023-04-02T00:03:05.144Z,101463.84
2023-04-02T00:05:51.452Z,101473.41
2023-04-02T00:08:26.600Z,101478.72
2023-04-02T00:10:54.696Z,101468.97
2023-04-02T00:13:29.239Z,101481.16
2023-04-02T00:15:58.243Z,101443.13
2023-04-02T00:18:26.318Z,101484.19
2023-04-02T00:21:00.555Z,101456.50
2023-04-02T00:23:28.265Z,101505.19
2023-04-02T00:25:54.953Z,101498.63
2023-04-02T00:28:24.090Z,101505.88
2023-04-02T00:30:54.027Z,101520.13
2023-04-02T00:33:23.377Z,101524.84
2023-04-02T00:35:52.570Z,101509.41
2023-04-02T00:38:31.968Z,101511.88
2023-04-02T00:41:03.002Z,101538.25
2023-04-02T00:43:35.875Z,101541.03
2023-04-02T00:46:10.971Z,101534.03
2023-04-02T00:48:49.074Z,101531.09
2023-04-02T00:51:21.692Z,101557.00
2023-04-02T00:53:50.400Z,101552.50
2023-04-02T00:56:27.734Z,101566.50
2023-04-02T00:58:56.584Z,101578.19
2023-04-02T01:01:27.858Z,101548.53
2023-04-02T01:04:02.352Z,101574.13
2023-04-02T01:06:34.204Z,101577.47
2023-04-02T01:09:12.821Z,101588.88
2023-04-02T01:12:08.498Z,101598.56
2023-04-02T01:14:44.096Z,101593.53
2023-04-02T01:17:26.457Z,101577.63
2023-04-02T01:19:53.136Z,101606.91
2023-04-02T01:22:25.078Z,101585.63
2023-04-02T01:24:58.215Z,101600.19
2023-04-02T01:27:37.094Z,101580.13
2023-04-02T01:30:07.452Z,101570.31
2023-04-02T01:32:35.846Z,101595.31
2023-04-02T01:35:04.634Z,101604.75
2023-04-02T01:37:44.998Z,101634.19
2023-04-02T01:40:33.130Z,101642.38
2023-04-02T01:43:30.098Z,101607.38
2023-04-02T01:46:05.670Z,101622.03
2023-04-02T01:48:32.453Z,101607.16
2023-04-02T01:51:03.652Z,101560.44
2023-04-02T01:53:31.326Z,101630.66
2023-04-02T01:56:01.185Z,101659.72
2023-04-02T01:58:31.771Z,101668.41
2023-04-02T02:01:02.775Z,101675.53
2023-04-02T02:03:30.084Z,101693.03
2023-04-02T02:05:57.786Z,101673.63
2023-04-02T02:08:38.681Z,101690.63
2023-04-02T02:11:06.831Z,101660.22
2023-04-02T02:13:33.660Z,101669.81
2023-04-02T02:16:01.874Z,101702.56
2023-04-02T02:18:29.552Z,101693.31
2023-04-02T02:20:59.791Z,101718.50
2023-04-02T02:23:29.836Z,101717.59
2023-04-02T02:25:56.728Z,101664.72
2023-04-02T02:28:33.420Z,101725.88
2023-04-02T02:31:06.993Z,101738.84
2023-04-02T02:33:46.086Z,101732.03
2023-04-02T02:36:23.125Z,101703.34
2023-04-02T02:39:10.767Z,101754.84
2023-04-02T02:41:42.685Z,101754.22
2023-04-02T02:44:09.190Z,101761.13
2023-04-02T02:46:39.745Z,101713.63
2023-04-02T02:49:07.354Z,101765.91
2023-04-02T02:52:01.125Z,101761.81
2023-04-02T02:54:36.580Z,101716.00
2023-04-02T02:57:09.402Z,101764.91
2023-04-02T02:59:37.428Z,101778.69
2023-04-02T03:02:07.263Z,101777.84
2023-04-02T03:04:35.816Z,101788.56
2023-04-02T03:07:05.978Z,101784.00
2023-04-02T03:09:46.012Z,101800.53
2023-04-02T03:12:35.076Z,101804.19
2023-04-02T03:15:19.070Z,101800.63
2023-04-02T03:17:55.051Z,101813.75
2023-04-02T03:20:24.367Z,101812.06
2023-04-02T03:23:03.975Z,101821.84
2023-04-02T03:25:52.048Z,101829.63
2023-04-02T03:28:27.568Z,101822.19
2023-04-02T03:31:06.131Z,101838.47
2023-04-02T03:33:47.956Z,101850.72
2023-04-02T03:36:25.816Z,101855.97
2023-04-02T03:39:14.070Z,101854.28
2023-04-02T03:41:47.969Z,101857.78
2023-04-02T03:44:43.743Z,101874.38
2023-04-02T03:47:16.369Z,101870.91
2023-04-02T03:50:18.150Z,101874.47
2023-04-02T03:52:45.117Z,101889.41
2023-04-02T03:55:16.037Z,101856.28
2023-04-02T03:58:01.640Z,101897.38
2023-04-02T04:00:41.451Z,101903.59
2023-04-02T04:03:25.317Z,101908.72
2023-04-02T04:05:57.676Z,101897.69
2023-04-02T04:08:32.847Z,101863.78
2023-04-02T04:11:08.012Z,101912.59
2023-04-02T04:13:43.444Z,101910.91
2023-04-02T04:16:17.023Z,101935.03
2023-04-02T04:18:52.713Z,101918.97
2023-04-02T04:21:37.157Z,101942.91
2023-04-02T04:24:06.598Z,101931.19
2023-04-02T04:26:54.257Z,101943.16
2023-04-02T04:29:45.661Z,101956.94
2023-04-02T04:32:27.621Z,101944.38
2023-04-02T04:35:01.133Z,101971.84
2023-04-02T04:37:33.783Z,101954.03
2023-04-02T04:40:17.542Z,101960.84
2023-04-02T04:42:45.771Z,101984.94
2023-04-02T04:45:27.579Z,101986.97
2023-04-02T04:48:09.799Z,101987.03
2023-04-02T04:51:00.577Z,101998.13
2023-04-02T04:53:29.472Z,101977.72
2023-04-02T04:56:16.463Z,102000.97
2023-04-02T04:59:00.324Z,102018.31
2023-04-02T05:01:46.536Z,101968.78
2023-04-02T05:04:28.747Z,102029.56
2023-04-02T05:07:10.699Z,102035.56
2023-04-02T05:09:42.242Z,102020.34
2023-04-02T05:12:42.897Z,102046.03
2023-04-02T05:15:09.604Z,102058.16
2023-04-02T05:17:51.322Z,102058.38
2023-04-02T05:20:27.312Z,102060.88
2023-04-02T05:23:13.816Z,102075.66
2023-04-02T05:25:58.062Z,102072.84
2023-04-02T05:28:51.021Z,102080.88
2023-04-02T05:31:54.787Z,102087.50
2023-04-02T05:34:26.601Z,102066.09
2023-04-02T05:36:55.748Z,102089.06
2023-04-02T05:39:24.680Z,102095.16
2023-04-02T05:42:03.425Z,102101.25
2023-04-02T05:44:45.570Z,102002.00
2023-04-02T05:47:22.496Z,102112.31
2023-04-02T05:50:10.489Z,102100.38
2023-04-02T05:52:46.159Z,102111.50
2023-04-02T05:55:12.697Z,102132.81
2023-04-02T05:57:52.877Z,102069.53
2023-04-02T06:00:49.324Z,102079.03
2023-04-02T06:03:27.269Z,102160.31
2023-04-02T06:06:01.180Z,102152.47
2023-04-02T06:08:36.497Z,102167.00
2023-04-02T06:11:17.466Z,102165.28
2023-04-02T06:13:44.199Z,102166.09
2023-04-02T06:16:15.578Z,102169.22
2023-04-02T06:18:44.311Z,102179.69
2023-04-02T06:21:15.556Z,102187.50
2023-04-02T06:23:51.017Z,102202.63
2023-04-02T06:26:36.243Z,102220.78
2023-04-02T06:29:18.449Z,102208.63
2023-04-02T06:31:50.697Z,102231.94
2023-04-02T06:34:22.590Z,102241.16
2023-04-02T06:36:51.459Z,102237.47
2023-04-02T06:39:22.204Z,102244.09
2023-04-02T06:42:14.097Z,102247.13
2023-04-02T06:44:41.089Z,102242.66
2023-04-02T06:47:24.446Z,102264.56
2023-04-02T06:49:58.640Z,102255.94
2023-04-02T06:52:46.198Z,102249.00
2023-04-02T06:55:50.525Z,102275.53
2023-04-02T06:58:19.531Z,102252.34
2023-04-02T07:00:49.176Z,102274.75
2023-04-02T07:03:22.724Z,102279.06
2023-04-02T07:05:49.475Z,102265.91
2023-04-02T07:08:16.138Z,102274.38
2023-04-02T07:10:42.880Z,102254.88
2023-04-02T07:13:15.286Z,102289.44
2023-04-02T07:15:42.012Z,102286.16
2023-04-02T07:18:25.958Z,102301.38
2023-04-02T07:20:52.801Z,102300.00
2023-04-02T07:23:21.151Z,102304.34
2023-04-02T07:25:53.531Z,102274.63
2023-04-02T07:28:22.553Z,102310.91
2023-04-02T07:30:50.566Z,102316.91
2023-04-02T07:33:20.656Z,102246.53
2023-04-02T07:35:48.256Z,102325.53
2023-04-02T07:38:15.000Z,102301.75
2023-04-02T07:40:42.030Z,102318.44
2023-04-02T07:43:08.906Z,102321.31
2023-04-02T07:45:35.960Z,102312.09
2023-04-02T07:48:07.499Z,102331.84
2023-04-02T07:50:35.014Z,102297.66
2023-04-02T07:53:01.986Z,102307.81
2023-04-02T07:55:28.940Z,102338.28
2023-04-02T07:57:57.928Z,102327.69
2023-04-02T08:00:25.839Z,102356.00
2023-04-02T08:02:53.686Z,102352.47
2023-04-02T08:05:20.548Z,102354.22
2023-04-02T08:07:55.627Z,102355.44
2023-04-02T08:10:23.056Z,102363.56
2023-04-02T08:12:50.189Z,102362.75
2023-04-02T08:15:17.582Z,102374.72
2023-04-02T08:17:44.609Z,102373.78
2023-04-02T08:20:18.083Z,102383.53
2023-04-02T08:22:45.884Z,102380.34
2023-04-02T08:25:12.868Z,102350.50
2023-04-02T08:27:39.781Z,102371.91
2023-04-02T08:30:09.001Z,102393.03
2023-04-02T08:32:36.079Z,102363.81
2023-04-02T08:35:03.071Z,102368.72
2023-04-02T08:37:29.907Z,102381.13
2023-04-02T08:39:56.626Z,102400.66
2023-04-02T08:42:38.327Z,102404.91
2023-04-02T08:45:42.605Z,102409.78
2023-04-02T08:48:11.316Z,102403.84
2023-04-02T08:50:40.824Z,102432.69
2023-04-02T08:53:21.320Z,102421.34
2023-04-02T08:56:09.961Z,102394.31
2023-04-02T08:58:43.012Z,102440.06
2023-04-02T09:01:44.926Z,102395.06
2023-04-02T09:04:16.497Z,102437.69
2023-04-02T09:06:44.006Z,102447.34
2023-04-02T09:09:14.206Z,102448.97
2023-04-02T09:11:54.543Z,102452.38
2023-04-02T09:14:35.056Z,102445.19
2023-04-02T09:17:12.643Z,102449.44
2023-04-02T09:19:44.581Z,102458.50
2023-04-02T09:22:23.520Z,102452.09
2023-04-02T09:24:58.016Z,102459.00
2023-04-02T09:27:30.654Z,102471.84
2023-04-02T09:30:10.720Z,102428.47
2023-04-02T09:32:46.466Z,102463.03
2023-04-02T09:35:25.624Z,102480.19
2023-04-02T09:38:12.608Z,102489.84
2023-04-02T09:41:18.610Z,102489.69
2023-04-02T09:43:45.626Z,102502.44
2023-04-02T09:46:24.434Z,102437.91
2023-04-02T09:48:58.203Z,102477.97
2023-04-02T09:51:27.297Z,102473.56
2023-04-02T09:54:03.188Z,102502.34
2023-04-02T09:56:32.015Z,102482.59
2023-04-02T09:59:14.202Z,102510.06
2023-04-02T10:01:53.314Z,102501.06
2023-04-02T10:04:35.275Z,102505.84
2023-04-02T10:07:03.094Z,102505.69
2023-04-02T10:09:38.577Z,102510.19
2023-04-02T10:12:12.632Z,102508.59
2023-04-02T10:14:46.337Z,102516.91
2023-04-02T10:17:19.389Z,102515.31
2023-04-02T10:19:52.462Z,102473.97
2023-04-02T10:22:21.657Z,102508.63
2023-04-02T10:24:49.002Z,102477.78
2023-04-02T10:27:18.721Z,102514.13
2023-04-02T10:30:19.160Z,102530.53
2023-04-02T10:33:00.948Z,102514.97
2023-04-02T10:35:53.821Z,102531.97
2023-04-02T10:38:23.407Z,102529.91
2023-04-02T10:41:32.094Z,102534.53
2023-04-02T10:44:16.750Z,102552.81
2023-04-02T10:47:08.128Z,102553.09
2023-04-02T10:50:02.504Z,102525.31
2023-04-02T10:52:35.092Z,102534.53
2023-04-02T10:55:08.873Z,102544.66
2023-04-02T10:57:44.122Z,102550.19
2023-04-02T11:00:11.344Z,102558.84
2023-04-02T11:02:47.530Z,102567.38
2023-04-02T11:05:44.153Z,102556.09
2023-04-02T11:08:13.800Z,102564.22
2023-04-02T11:10:47.220Z,102566.56
2023-04-02T11:13:23.172Z,102549.81
2023-04-02T11:15:50.761Z,102525.16
2023-04-02T11:18:36.758Z,102550.09
2023-04-02T11:21:04.938Z,102553.88
2023-04-02T11:24:02.060Z,102567.66
2023-04-02T11:26:37.540Z,102554.69
2023-04-02T11:29:23.381Z,102506.34
2023-04-02T11:32:11.209Z,102571.88
2023-04-02T11:34:40.848Z,102591.84
2023-04-02T11:37:45.737Z,102566.66
2023-04-02T11:40:13.708Z,102588.28
2023-04-02T11:42:44.118Z,102585.09
2023-04-02T11:45:28.729Z,102591.97
2023-04-02T11:48:01.421Z,102598.69
2023-04-02T11:50:35.229Z,102599.81
2023-04-02T11:53:11.546Z,102602.63
2023-04-02T11:55:40.098Z,102603.03
2023-04-02T11:58:20.627Z,102597.47
2023-04-02T12:01:16.278Z,102609.91
2023-04-02T12:03:57.847Z,102614.78
2023-04-02T12:06:27.480Z,102615.06
2023-04-02T12:09:15.416Z,102628.38
2023-04-02T12:11:42.941Z,102620.66
2023-04-02T12:14:47.178Z,102626.34
2023-04-02T12:17:35.795Z,102630.47
2023-04-02T12:20:08.365Z,102618.13
2023-04-02T12:22:52.974Z,102600.09
2023-04-02T12:25:40.127Z,102595.03
2023-04-02T12:28:09.792Z,102641.47
2023-04-02T12:30:38.584Z,102635.38
2023-04-02T12:33:37.493Z,102581.28
2023-04-02T12:36:10.003Z,102635.88
2023-04-02T12:38:55.456Z,102638.69
2023-04-02T12:41:31.210Z,102627.91
2023-04-02T12:44:28.047Z,102575.56
2023-04-02T12:46:56.126Z,102605.94
2023-04-02T12:49:34.195Z,102581.56
2023-04-02T12:52:07.623Z,102616.81
2023-04-02T12:54:46.278Z,102643.69
2023-04-02T12:57:26.230Z,102648.81
2023-04-02T12:59:58.208Z,102651.16
2023-04-02T13:02:27.463Z,102664.38
2023-04-02T13:05:01.186Z,102636.22
2023-04-02T13:07:34.349Z,102611.78
2023-04-02T13:10:03.693Z,102659.41
2023-04-02T13:12:38.646Z,102661.09
2023-04-02T13:15:08.227Z,102606.78
2023-04-02T13:17:44.146Z,102622.22
2023-04-02T13:20:31.646Z,102598.88
2023-04-02T13:23:00.860Z,102665.84
2023-04-02T13:25:35.378Z,102606.22
2023-04-02T13:28:02.675Z,102632.97
2023-04-02T13:30:29.794Z,102635.44
2023-04-02T13:32:56.647Z,102645.88
2023-04-02T13:35:23.411Z,102627.34
2023-04-02T13:37:50.126Z,102639.31
2023-04-02T13:40:19.380Z,102675.09
2023-04-02T13:42:47.537Z,102653.94
2023-04-02T13:45:29.051Z,102676.97
2023-04-02T13:48:00.853Z,102646.34
2023-04-02T13:50:31.971Z,102679.59
2023-04-02T13:53:04.771Z,102676.97
2023-04-02T13:55:35.249Z,102609.56
2023-04-02T13:58:01.882Z,102682.09
2023-04-02T14:00:28.479Z,102689.84
2023-04-02T14:03:01.573Z,102699.44
2023-04-02T14:05:53.722Z,102693.28
2023-04-02T14:08:51.351Z,102596.50
2023-04-02T14:11:57.282Z,102689.63
2023-04-02T14:15:01.590Z,102694.88
2023-04-02T14:17:32.515Z,102670.91
2023-04-02T14:20:10.890Z,102638.38
2023-04-02T14:23:04.048Z,102621.44
2023-04-02T14:25:57.971Z,102698.13
2023-04-02T14:28:40.364Z,102618.81
2023-04-02T14:31:31.679Z,102701.94
2023-04-02T14:34:15.746Z,102705.69
2023-04-02T14:36:45.954Z,102706.81
2023-04-02T14:39:15.745Z,102704.19
2023-04-02T14:41:58.288Z,102695.78
2023-04-02T14:44:30.882Z,102695.16
2023-04-02T14:47:14.358Z,102718.97
2023-04-02T14:49:45.819Z,102709.63
2023-04-02T14:52:18.163Z,102718.50
2023-04-02T14:54:55.706Z,102711.63
2023-04-02T14:57:49.217Z,102722.38
2023-04-02T15:00:42.035Z,102724.53
2023-04-02T15:03:29.046Z,102672.75
2023-04-02T15:05:59.897Z,102723.00
2023-04-02T15:08:30.636Z,102669.56
2023-04-02T15:11:16.317Z,102726.91
2023-04-02T15:13:55.378Z,102702.53
2023-04-02T15:16:26.735Z,102727.34
2023-04-02T15:18:56.920Z,102721.94
2023-04-02T15:21:29.365Z,102729.63
2023-04-02T15:24:01.796Z,102731.03
2023-04-02T15:26:57.799Z,102726.91
2023-04-02T15:29:43.322Z,102748.28
2023-04-02T15:32:27.364Z,102732.03
2023-04-02T15:35:06.571Z,102751.31
2023-04-02T15:37:46.156Z,102726.56
2023-04-02T15:40:31.246Z,102756.78
2023-04-02T15:43:18.718Z,102730.94
2023-04-02T15:46:05.357Z,102750.16
2023-04-02T15:48:48.238Z,102744.00
2023-04-02T15:51:23.149Z,102734.78
2023-04-02T15:54:16.098Z,102751.72
2023-04-02T15:57:01.793Z,102753.91
2023-04-02T15:59:34.200Z,102756.63
2023-04-02T16:02:34.837Z,102762.81
2023-04-02T16:05:19.640Z,102762.22
2023-04-02T16:08:01.131Z,102740.09
2023-04-02T16:10:41.778Z,102746.78
2023-04-02T16:13:34.091Z,102778.94
2023-04-02T16:16:10.002Z,102781.50
2023-04-02T16:18:47.433Z,102773.41
2023-04-02T16:21:21.827Z,102773.22
2023-04-02T16:23:49.425Z,102794.19
2023-04-02T16:26:16.348Z,102790.94
2023-04-02T16:28:45.289Z,102792.84
2023-04-02T16:31:28.414Z,102797.19
2023-04-02T16:34:22.474Z,102781.28
2023-04-02T16:37:01.481Z,102783.00
2023-04-02T16:39:36.969Z,102810.84
2023-04-02T16:42:18.837Z,102806.31
2023-04-02T16:45:09.406Z,102786.69
2023-04-02T16:48:05.383Z,102808.97
2023-04-02T16:50:46.087Z,102819.84
2023-04-02T16:53:23.351Z,102824.38
2023-04-02T16:56:37.330Z,102827.28
2023-04-02T16:59:44.220Z,102811.09
2023-04-02T17:02:25.830Z,102827.84
2023-04-02T17:05:10.758Z,102842.25
2023-04-02T17:07:46.261Z,102836.22
2023-04-02T17:10:31.391Z,102846.16
2023-04-02T17:13:03.206Z,102845.31
2023-04-02T17:15:39.292Z,102854.22
2023-04-02T17:18:24.723Z,102856.22
2023-04-02T17:20:52.156Z,102851.34
2023-04-02T17:23:20.001Z,102864.47
2023-04-02T17:26:07.736Z,102863.97
2023-04-02T17:28:37.073Z,102873.53
2023-04-02T17:31:11.841Z,102879.16
2023-04-02T17:33:38.596Z,102834.69
2023-04-02T17:36:34.993Z,102812.81
2023-04-02T17:39:04.654Z,102887.75
2023-04-02T17:41:43.789Z,102887.09
2023-04-02T17:44:19.401Z,102883.00
2023-04-02T17:47:01.727Z,102872.25
2023-04-02T17:49:42.034Z,102869.13
2023-04-02T17:52:15.988Z,102902.13
2023-04-02T17:55:13.378Z,102907.53
2023-04-02T17:57:47.659Z,102893.78
2023-04-02T18:00:42.112Z,102916.56
2023-04-02T18:03:18.123Z,102912.38
2023-04-02T18:05:51.564Z,102917.94
2023-04-02T18:08:32.182Z,102918.41
2023-04-02T18:11:18.953Z,102921.28
2023-04-02T18:14:05.247Z,102927.72
2023-04-02T18:16:42.244Z,102935.84
2023-04-02T18:19:13.456Z,102912.84
2023-04-02T18:22:13.410Z,102936.22
2023-04-02T18:24:58.471Z,102938.31
2023-04-02T18:27:34.491Z,102947.38
2023-04-02T18:30:27.355Z,102949.25
2023-04-02T18:33:12.152Z,102959.97
2023-04-02T18:35:59.953Z,102967.97
2023-04-02T18:38:46.363Z,102965.56
2023-04-02T18:42:10.188Z,102967.63
2023-04-02T18:44:42.694Z,102980.84
2023-04-02T18:47:29.890Z,102985.44
2023-04-02T18:50:12.201Z,102985.59
2023-04-02T18:52:41.289Z,102964.31
2023-04-02T18:55:17.430Z,102988.66
2023-04-02T18:57:46.849Z,102974.28
2023-04-02T19:00:29.666Z,103007.09
2023-04-02T19:03:24.112Z,103000.31
2023-04-02T19:06:07.584Z,103011.88
2023-04-02T19:08:40.788Z,103016.53
2023-04-02T19:11:13.958Z,103021.69
2023-04-02T19:13:40.751Z,102985.66
2023-04-02T19:16:38.668Z,103018.41
2023-04-02T19:19:08.168Z,103020.28
2023-04-02T19:21:55.796Z,102987.69
2023-04-02T19:24:33.818Z,103032.72
2023-04-02T19:27:27.333Z,103038.09
2023-04-02T19:29:53.957Z,103034.63
2023-04-02T19:32:54.943Z,103039.13
2023-04-02T19:35:30.545Z,103038.38
2023-04-02T19:39:02.356Z,103041.28
2023-04-02T19:41:43.070Z,103043.94
2023-04-02T19:44:13.323Z,102995.13
2023-04-02T19:46:40.979Z,103047.78
2023-04-02T19:49:23.086Z,103051.97
2023-04-02T19:51:50.201Z,103063.44
2023-04-02T19:54:16.916Z,103057.47
2023-04-02T19:56:43.968Z,103031.75
2023-04-02T19:59:18.142Z,103043.00
2023-04-02T20:01:46.175Z,103020.72
2023-04-02T20:04:13.167Z,103066.38
2023-04-02T20:06:40.069Z,103043.28
2023-04-02T20:09:08.670Z,103051.00
2023-04-02T20:11:36.819Z,103074.44
2023-04-02T20:14:04.259Z,103042.59
2023-04-02T20:16:32.843Z,103074.63
2023-04-02T20:18:59.782Z,103050.72
2023-04-02T20:21:27.570Z,103038.78
2023-04-02T20:23:55.420Z,103076.72
2023-04-02T20:26:22.830Z,103057.97
2023-04-02T20:28:49.601Z,103078.75
2023-04-02T20:31:18.579Z,103058.16
2023-04-02T20:33:45.759Z,103104.00
2023-04-02T20:36:15.790Z,103100.53
2023-04-02T20:38:43.555Z,103109.34
2023-04-02T20:41:10.496Z,103107.75
2023-04-02T20:43:40.514Z,103113.03
2023-04-02T20:46:09.514Z,103114.09
2023-04-02T20:48:38.162Z,103064.06
2023-04-02T20:51:06.938Z,103096.09
2023-04-02T20:53:35.291Z,103120.38
2023-04-02T20:56:02.884Z,103098.16
2023-04-02T20:58:29.469Z,103123.38
2023-04-02T21:01:06.504Z,103145.13
2023-04-02T21:03:33.195Z,103134.81
2023-04-02T21:05:59.862Z,103095.25
2023-04-02T21:08:26.756Z,103136.81
2023-04-02T21:10:53.517Z,103154.09
2023-04-02T21:13:20.389Z,103157.72
2023-04-02T21:15:47.084Z,103138.91
2023-04-02T21:18:13.993Z,103148.44
2023-04-02T21:20:40.678Z,103137.25
2023-04-02T21:23:07.552Z,103180.78
2023-04-02T21:25:34.553Z,103140.41
2023-04-02T21:28:01.301Z,103181.03
2023-04-02T21:30:27.953Z,103180.19
2023-04-02T21:32:54.675Z,103181.16
2023-04-02T21:35:21.402Z,103115.72
2023-04-02T21:37:48.244Z,103171.84
2023-04-02T21:40:15.034Z,103189.28
2023-04-02T21:42:41.664Z,103185.91
2023-04-02T21:45:08.652Z,103184.19
2023-04-02T21:47:35.521Z,103201.53
2023-04-02T21:50:02.229Z,103087.06
2023-04-02T21:52:29.248Z,103180.97
2023-04-02T21:54:55.916Z,103200.91
2023-04-02T21:57:22.646Z,103167.38
2023-04-02T21:59:49.640Z,103204.53
2023-04-02T22:02:16.225Z,103161.47
2023-04-02T22:04:43.032Z,103203.84
2023-04-02T22:07:10.023Z,103133.16
2023-04-02T22:09:36.652Z,103210.81
2023-04-02T22:12:03.564Z,103186.72
2023-04-02T22:14:30.871Z,103212.75
2023-04-02T22:16:58.904Z,103186.88
2023-04-02T22:19:25.894Z,103219.78
2023-04-02T22:21:53.863Z,103204.34
2023-04-02T22:24:22.425Z,103226.13
2023-04-02T22:26:49.294Z,103225.34
2023-04-02T22:29:16.690Z,103157.06
2023-04-02T22:31:43.781Z,103225.38
2023-04-02T22:34:10.370Z,103173.63
2023-04-02T22:36:37.147Z,103178.78
2023-04-02T22:39:06.953Z,103170.28
2023-04-02T22:41:33.953Z,103238.66
2023-04-02T22:44:02.037Z,103234.31
2023-04-02T22:46:29.732Z,103232.66
2023-04-02T22:48:57.361Z,103170.53
2023-04-02T22:51:25.505Z,103193.88
2023-04-02T22:53:54.031Z,103235.34
2023-04-02T22:56:23.873Z,103216.44
2023-04-02T22:58:50.718Z,103210.41
2023-04-02T23:01:30.595Z,103243.38
2023-04-02T23:03:57.787Z,103242.63
2023-04-02T23:06:26.661Z,103244.44
2023-04-02T23:08:53.638Z,103241.78
2023-04-02T23:11:23.086Z,103215.09
2023-04-02T23:13:52.234Z,103255.88
2023-04-02T23:16:19.822Z,103257.66
2023-04-02T23:18:48.133Z,103231.84
2023-04-02T23:21:16.359Z,103221.44
2023-04-02T23:23:43.063Z,103250.84
2023-04-02T23:26:13.065Z,103251.00
2023-04-02T23:28:40.952Z,103236.38
2023-04-02T23:31:11.058Z,103250.28
2023-04-02T23:33:38.003Z,103182.06
2023-04-02T23:36:18.313Z,103249.44
2023-04-02T23:38:45.089Z,103214.09
2023-04-02T23:41:16.390Z,103235.69
2023-04-02T23:43:43.410Z,103255.75
2023-04-02T23:46:10.836Z,103257.50
2023-04-02T23:48:37.669Z,103237.63
2023-04-02T23:51:04.655Z,103250.78
2023-04-02T23:53:31.956Z,103255.06
2023-04-02T23:55:58.606Z,103238.75
2023-04-02T23:58:25.399Z,103256.91
